ASA1313 PANC-PAFA
Flight info
| Callsign | ASA1313 |
|---|---|
| Flight time | 0h 47m |
| Altitude | 28000 |
| Route | CAWIN LIBER5 |
| Aircraft | B738/M-SDE2E3FGHIRWXY/LB1 |
Departure
| Time | 2026-04-20 03:26 |
|---|---|
| Airport | Ted Stevens Anchorage International Airport (PANC) |
Arrival
| Time | 2026-04-20 04:13 |
|---|---|
| Airport | Fairbanks International Airport (PAFA) |
| Time | Latitude | Longitude | Altitude | Speed | Heading |
|---|---|---|---|---|---|
| 2026-04-20 03:00 | 61.17467 | -149.98427 | 113 ft | 0 kts | 82° |
| 2026-04-20 03:15 | 61.17466 | -149.98444 | 116 ft | 3 kts | 82° |
| 2026-04-20 03:15 | 61.17464 | -149.98485 | 115 ft | 3 kts | 82° |
| 2026-04-20 03:15 | 61.17461 | -149.98522 | 113 ft | 3 kts | 83° |
| 2026-04-20 03:16 | 61.17461 | -149.98561 | 112 ft | 3 kts | 113° |
| 2026-04-20 03:16 | 61.17472 | -149.98591 | 112 ft | 3 kts | 150° |
| 2026-04-20 03:16 | 61.17484 | -149.98603 | 111 ft | 1 kts | 160° |
| 2026-04-20 03:16 | 61.17485 | -149.98604 | 111 ft | 1 kts | 160° |
| 2026-04-20 03:22 | 61.17466 | -149.98589 | 113 ft | 6 kts | 159° |
| 2026-04-20 03:22 | 61.17423 | -149.98568 | 109 ft | 6 kts | 182° |
| 2026-04-20 03:22 | 61.17353 | -149.98648 | 111 ft | 10 kts | 213° |
| 2026-04-20 03:22 | 61.17293 | -149.98728 | 111 ft | 10 kts | 212° |
| 2026-04-20 03:23 | 61.17233 | -149.98768 | 112 ft | 9 kts | 169° |
| 2026-04-20 03:23 | 61.17145 | -149.98693 | 114 ft | 21 kts | 138° |
| 2026-04-20 03:23 | 61.17117 | -149.98379 | 116 ft | 24 kts | 90° |
| 2026-04-20 03:23 | 61.17117 | -149.98035 | 115 ft | 23 kts | 89° |
| 2026-04-20 03:24 | 61.17118 | -149.97683 | 110 ft | 26 kts | 89° |
| 2026-04-20 03:24 | 61.17125 | -149.97286 | 104 ft | 29 kts | 86° |
| 2026-04-20 03:24 | 61.17127 | -149.96925 | 98 ft | 18 kts | 91° |
| 2026-04-20 03:24 | 61.17039 | -149.96804 | 97 ft | 17 kts | 181° |
| 2026-04-20 03:25 | 61.16920 | -149.96845 | 101 ft | 22 kts | 223° |
| 2026-04-20 03:25 | 61.16867 | -149.97092 | 106 ft | 16 kts | 249° |
| 2026-04-20 03:25 | 61.16827 | -149.97300 | 114 ft | 15 kts | 247° |
| 2026-04-20 03:25 | 61.16794 | -149.97505 | 117 ft | 17 kts | 261° |
| 2026-04-20 03:26 | 61.16788 | -149.98329 | 124 ft | 103 kts | 269° |
| 2026-04-20 03:26 | 61.16786 | -150.00410 | 165 ft | 181 kts | 271° |
| 2026-04-20 03:26 | 61.16799 | -150.03205 | 959 ft | 201 kts | 264° |
| 2026-04-20 03:26 | 61.16781 | -150.06077 | 2335 ft | 197 kts | 263° |
| 2026-04-20 03:27 | 61.16763 | -150.08903 | 3519 ft | 203 kts | 263° |
| 2026-04-20 03:27 | 61.16742 | -150.11928 | 4296 ft | 215 kts | 264° |
| 2026-04-20 03:27 | 61.16722 | -150.15167 | 4760 ft | 236 kts | 265° |
| 2026-04-20 03:27 | 61.16705 | -150.18652 | 5462 ft | 247 kts | 266° |
| 2026-04-20 03:28 | 61.16693 | -150.22248 | 6296 ft | 252 kts | 266° |
| 2026-04-20 03:28 | 61.16681 | -150.25911 | 7134 ft | 256 kts | 266° |
| 2026-04-20 03:28 | 61.16656 | -150.33425 | 8789 ft | 266 kts | 267° |
| 2026-04-20 03:29 | 61.16640 | -150.37280 | 9642 ft | 270 kts | 267° |
| 2026-04-20 03:29 | 61.16622 | -150.41198 | 10396 ft | 276 kts | 268° |
| 2026-04-20 03:29 | 61.16605 | -150.45336 | 10640 ft | 300 kts | 269° |
| 2026-04-20 03:29 | 61.17058 | -150.49695 | 11034 ft | 320 kts | 291° |
| 2026-04-20 03:30 | 61.18020 | -150.53903 | 11802 ft | 325 kts | 294° |
| 2026-04-20 03:30 | 61.18977 | -150.58140 | 12661 ft | 326 kts | 290° |
| 2026-04-20 03:30 | 61.19819 | -150.62512 | 13515 ft | 327 kts | 288° |
| 2026-04-20 03:30 | 61.20647 | -150.66927 | 14226 ft | 331 kts | 289° |
| 2026-04-20 03:31 | 61.21514 | -150.71393 | 14896 ft | 336 kts | 290° |
| 2026-04-20 03:31 | 61.22414 | -150.75904 | 15580 ft | 340 kts | 291° |
| 2026-04-20 03:31 | 61.23486 | -150.80315 | 16269 ft | 346 kts | 298° |
| 2026-04-20 03:31 | 61.25006 | -150.84224 | 17020 ft | 354 kts | 318° |
| 2026-04-20 03:32 | 61.27147 | -150.86788 | 17795 ft | 361 kts | 337° |
| 2026-04-20 03:32 | 61.29641 | -150.87819 | 18395 ft | 372 kts | 355° |
| 2026-04-20 03:32 | 61.32228 | -150.87191 | 18956 ft | 381 kts | 15° |
| 2026-04-20 03:32 | 61.34691 | -150.85247 | 19553 ft | 386 kts | 21° |
| 2026-04-20 03:33 | 61.37177 | -150.82882 | 20111 ft | 391 kts | 24° |
| 2026-04-20 03:33 | 61.39622 | -150.80501 | 20661 ft | 395 kts | 23° |
| 2026-04-20 03:33 | 61.42134 | -150.78140 | 21226 ft | 398 kts | 22° |
| 2026-04-20 03:33 | 61.44688 | -150.75808 | 21798 ft | 402 kts | 21° |
| 2026-04-20 03:34 | 61.47271 | -150.73478 | 22344 ft | 406 kts | 21° |
| 2026-04-20 03:34 | 61.49877 | -150.71135 | 22851 ft | 410 kts | 21° |
| 2026-04-20 03:34 | 61.52509 | -150.68766 | 23349 ft | 414 kts | 21° |
| 2026-04-20 03:34 | 61.55162 | -150.66369 | 23829 ft | 415 kts | 21° |
| 2026-04-20 03:35 | 61.57814 | -150.63962 | 24402 ft | 414 kts | 21° |
| 2026-04-20 03:35 | 61.60451 | -150.61561 | 24971 ft | 413 kts | 21° |
| 2026-04-20 03:35 | 61.63093 | -150.59149 | 25486 ft | 414 kts | 21° |
| 2026-04-20 03:35 | 61.65735 | -150.56732 | 25984 ft | 415 kts | 21° |
| 2026-04-20 03:36 | 61.68384 | -150.54303 | 26529 ft | 415 kts | 21° |
| 2026-04-20 03:36 | 61.71031 | -150.51870 | 27061 ft | 415 kts | 21° |
| 2026-04-20 03:36 | 61.73675 | -150.49437 | 27555 ft | 416 kts | 21° |
| 2026-04-20 03:36 | 61.76342 | -150.46979 | 27668 ft | 423 kts | 21° |
| 2026-04-20 03:37 | 61.79041 | -150.44487 | 27673 ft | 421 kts | 21° |
| 2026-04-20 03:37 | 61.81708 | -150.42015 | 27668 ft | 416 kts | 21° |
| 2026-04-20 03:37 | 61.84351 | -150.39561 | 27670 ft | 413 kts | 21° |
| 2026-04-20 03:37 | 61.86988 | -150.37109 | 27682 ft | 415 kts | 21° |
| 2026-04-20 03:38 | 61.89640 | -150.34641 | 27678 ft | 417 kts | 21° |
| 2026-04-20 03:38 | 61.92294 | -150.32166 | 27676 ft | 418 kts | 21° |
| 2026-04-20 03:38 | 61.94958 | -150.29676 | 27673 ft | 418 kts | 21° |
| 2026-04-20 03:38 | 61.97618 | -150.27186 | 27671 ft | 418 kts | 21° |
| 2026-04-20 03:39 | 62.00280 | -150.24688 | 27663 ft | 416 kts | 21° |
| 2026-04-20 03:39 | 62.02917 | -150.22207 | 27648 ft | 414 kts | 21° |
| 2026-04-20 03:39 | 62.05554 | -150.19723 | 27665 ft | 414 kts | 21° |
| 2026-04-20 03:39 | 62.08196 | -150.17230 | 27670 ft | 415 kts | 21° |
| 2026-04-20 03:40 | 62.10836 | -150.14735 | 27665 ft | 415 kts | 22° |
| 2026-04-20 03:40 | 62.13479 | -150.12231 | 27660 ft | 415 kts | 22° |
| 2026-04-20 03:40 | 62.16078 | -150.09764 | 27660 ft | 415 kts | 22° |
| 2026-04-20 03:40 | 62.18716 | -150.07256 | 27659 ft | 414 kts | 22° |
| 2026-04-20 03:41 | 62.21348 | -150.04748 | 27659 ft | 415 kts | 22° |
| 2026-04-20 03:41 | 62.23987 | -150.02229 | 27658 ft | 415 kts | 22° |
| 2026-04-20 03:41 | 62.26621 | -149.99710 | 27663 ft | 415 kts | 22° |
| 2026-04-20 03:41 | 62.29262 | -149.97179 | 27662 ft | 415 kts | 22° |
| 2026-04-20 03:42 | 62.31899 | -149.94648 | 27654 ft | 416 kts | 22° |
| 2026-04-20 03:42 | 62.34541 | -149.92106 | 27656 ft | 415 kts | 22° |
| 2026-04-20 03:42 | 62.37174 | -149.89568 | 27658 ft | 415 kts | 22° |
| 2026-04-20 03:42 | 62.39811 | -149.87021 | 27655 ft | 415 kts | 22° |
| 2026-04-20 03:43 | 62.42445 | -149.84473 | 27660 ft | 414 kts | 22° |
| 2026-04-20 03:43 | 62.45071 | -149.81927 | 27660 ft | 414 kts | 22° |
| 2026-04-20 03:43 | 62.47695 | -149.79378 | 27658 ft | 414 kts | 22° |
| 2026-04-20 03:43 | 62.50323 | -149.76821 | 27664 ft | 414 kts | 22° |
| 2026-04-20 03:44 | 62.52949 | -149.74260 | 27657 ft | 413 kts | 22° |
| 2026-04-20 03:44 | 62.55568 | -149.71701 | 27659 ft | 414 kts | 22° |
| 2026-04-20 03:44 | 62.58194 | -149.69131 | 27656 ft | 414 kts | 22° |
| 2026-04-20 03:44 | 62.60813 | -149.66562 | 27667 ft | 414 kts | 22° |
| 2026-04-20 03:45 | 62.63440 | -149.63980 | 27662 ft | 414 kts | 22° |
| 2026-04-20 03:45 | 62.66065 | -149.61396 | 27651 ft | 415 kts | 23° |
| 2026-04-20 03:45 | 62.68694 | -149.58802 | 27658 ft | 415 kts | 23° |
| 2026-04-20 03:45 | 62.71317 | -149.56209 | 27649 ft | 415 kts | 23° |
| 2026-04-20 03:46 | 62.73946 | -149.53606 | 27644 ft | 414 kts | 23° |
| 2026-04-20 03:46 | 62.76564 | -149.51007 | 27645 ft | 409 kts | 23° |
| 2026-04-20 03:46 | 62.79114 | -149.48469 | 27625 ft | 398 kts | 23° |
| 2026-04-20 03:46 | 62.81624 | -149.45968 | 27647 ft | 395 kts | 23° |
| 2026-04-20 03:47 | 62.84119 | -149.43479 | 27653 ft | 395 kts | 23° |
| 2026-04-20 03:47 | 62.86625 | -149.40974 | 27648 ft | 396 kts | 23° |
| 2026-04-20 03:47 | 62.89138 | -149.38458 | 27344 ft | 397 kts | 23° |
| 2026-04-20 03:47 | 62.91636 | -149.35950 | 27034 ft | 393 kts | 23° |
| 2026-04-20 03:48 | 62.94107 | -149.33464 | 26694 ft | 389 kts | 23° |
| 2026-04-20 03:48 | 62.96561 | -149.30992 | 26319 ft | 386 kts | 23° |
| 2026-04-20 03:48 | 62.98991 | -149.28539 | 25965 ft | 383 kts | 23° |
| 2026-04-20 03:48 | 63.01407 | -149.26096 | 25604 ft | 380 kts | 24° |
| 2026-04-20 03:49 | 63.03804 | -149.23667 | 25254 ft | 378 kts | 24° |
| 2026-04-20 03:49 | 63.06180 | -149.21256 | 24902 ft | 375 kts | 24° |
| 2026-04-20 03:49 | 63.08544 | -149.18852 | 24560 ft | 373 kts | 24° |
| 2026-04-20 03:49 | 63.10898 | -149.16455 | 24208 ft | 371 kts | 24° |
| 2026-04-20 03:50 | 63.13234 | -149.14071 | 23860 ft | 369 kts | 24° |
| 2026-04-20 03:50 | 63.15562 | -149.11692 | 23520 ft | 367 kts | 24° |
| 2026-04-20 03:50 | 63.17873 | -149.09326 | 23173 ft | 366 kts | 24° |
| 2026-04-20 03:50 | 63.20148 | -149.06991 | 22768 ft | 364 kts | 24° |
| 2026-04-20 03:51 | 63.22435 | -149.04642 | 22387 ft | 362 kts | 24° |
| 2026-04-20 03:51 | 63.24708 | -149.02302 | 22049 ft | 358 kts | 24° |
| 2026-04-20 03:51 | 63.26952 | -148.99989 | 21713 ft | 354 kts | 24° |
| 2026-04-20 03:51 | 63.29223 | -148.97919 | 21367 ft | 351 kts | 17° |
| 2026-04-20 03:52 | 63.31545 | -148.96379 | 21057 ft | 347 kts | 13° |
| 2026-04-20 03:52 | 63.33872 | -148.95014 | 20710 ft | 344 kts | 12° |
| 2026-04-20 03:52 | 63.36186 | -148.93688 | 20379 ft | 342 kts | 12° |
| 2026-04-20 03:52 | 63.38478 | -148.92360 | 20057 ft | 340 kts | 12° |
| 2026-04-20 03:53 | 63.40758 | -148.91015 | 19722 ft | 338 kts | 13° |
| 2026-04-20 03:53 | 63.43018 | -148.89659 | 19394 ft | 336 kts | 13° |
| 2026-04-20 03:53 | 63.45271 | -148.88294 | 19069 ft | 334 kts | 13° |
| 2026-04-20 03:53 | 63.47509 | -148.86926 | 18746 ft | 333 kts | 13° |
| 2026-04-20 03:54 | 63.49744 | -148.85554 | 18417 ft | 332 kts | 13° |
| 2026-04-20 03:54 | 63.51965 | -148.84186 | 18095 ft | 331 kts | 13° |
| 2026-04-20 03:54 | 63.54184 | -148.82815 | 17743 ft | 330 kts | 13° |
| 2026-04-20 03:54 | 63.56392 | -148.81449 | 17388 ft | 329 kts | 13° |
| 2026-04-20 03:55 | 63.58592 | -148.80085 | 17045 ft | 326 kts | 13° |
| 2026-04-20 03:55 | 63.60776 | -148.78729 | 16788 ft | 325 kts | 13° |
| 2026-04-20 03:55 | 63.62953 | -148.77375 | 16519 ft | 325 kts | 13° |
| 2026-04-20 03:55 | 63.65134 | -148.76017 | 16246 ft | 325 kts | 13° |
| 2026-04-20 03:56 | 63.67308 | -148.74659 | 15974 ft | 325 kts | 13° |
| 2026-04-20 03:56 | 63.69459 | -148.73313 | 15846 ft | 317 kts | 13° |
| 2026-04-20 03:56 | 63.71569 | -148.71991 | 15569 ft | 313 kts | 13° |
| 2026-04-20 03:56 | 63.73663 | -148.70678 | 15270 ft | 311 kts | 13° |
| 2026-04-20 03:57 | 63.75739 | -148.69375 | 14972 ft | 309 kts | 13° |
| 2026-04-20 03:57 | 63.77805 | -148.68075 | 14675 ft | 307 kts | 13° |
| 2026-04-20 03:57 | 63.79858 | -148.66782 | 14380 ft | 305 kts | 14° |
| 2026-04-20 03:57 | 63.81895 | -148.65497 | 14086 ft | 304 kts | 14° |
| 2026-04-20 03:58 | 63.83927 | -148.64213 | 13787 ft | 302 kts | 14° |
| 2026-04-20 03:58 | 63.85942 | -148.62937 | 13484 ft | 300 kts | 13° |
| 2026-04-20 03:58 | 63.87949 | -148.61665 | 13181 ft | 298 kts | 14° |
| 2026-04-20 03:58 | 63.89939 | -148.60401 | 12873 ft | 296 kts | 13° |
| 2026-04-20 03:59 | 63.91896 | -148.59157 | 12581 ft | 295 kts | 13° |
| 2026-04-20 03:59 | 63.93228 | -148.58309 | 12371 ft | 294 kts | 13° |
| 2026-04-20 03:59 | 63.95834 | -148.56648 | 11968 ft | 293 kts | 13° |
| 2026-04-20 03:59 | 63.97816 | -148.55383 | 11682 ft | 292 kts | 13° |
| 2026-04-20 04:00 | 63.99745 | -148.54150 | 11394 ft | 291 kts | 13° |
| 2026-04-20 04:00 | 64.01692 | -148.52905 | 11111 ft | 291 kts | 12° |
| 2026-04-20 04:00 | 64.03639 | -148.51656 | 10822 ft | 290 kts | 12° |
| 2026-04-20 04:00 | 64.05579 | -148.50410 | 10545 ft | 289 kts | 12° |
| 2026-04-20 04:01 | 64.07513 | -148.49163 | 10288 ft | 288 kts | 12° |
| 2026-04-20 04:01 | 64.08810 | -148.48324 | 10164 ft | 285 kts | 12° |
| 2026-04-20 04:01 | 64.11307 | -148.46707 | 9921 ft | 280 kts | 12° |
| 2026-04-20 04:01 | 64.12550 | -148.45904 | 9733 ft | 281 kts | 12° |
| 2026-04-20 04:02 | 64.14431 | -148.44687 | 9459 ft | 281 kts | 12° |
| 2026-04-20 04:02 | 64.16308 | -148.43469 | 9154 ft | 281 kts | 11° |
| 2026-04-20 04:02 | 64.18190 | -148.42245 | 8856 ft | 281 kts | 11° |
| 2026-04-20 04:02 | 64.20071 | -148.41021 | 8576 ft | 280 kts | 11° |
| 2026-04-20 04:03 | 64.21945 | -148.39798 | 8279 ft | 280 kts | 11° |
| 2026-04-20 04:03 | 64.23820 | -148.38572 | 8000 ft | 280 kts | 11° |
| 2026-04-20 04:03 | 64.25686 | -148.37352 | 7726 ft | 279 kts | 11° |
| 2026-04-20 04:03 | 64.27549 | -148.36131 | 7447 ft | 278 kts | 11° |
| 2026-04-20 04:04 | 64.29405 | -148.34915 | 7164 ft | 277 kts | 11° |
| 2026-04-20 04:04 | 64.31260 | -148.33696 | 6894 ft | 277 kts | 11° |
| 2026-04-20 04:04 | 64.33106 | -148.32481 | 6624 ft | 276 kts | 11° |
| 2026-04-20 04:04 | 64.34954 | -148.31264 | 6343 ft | 276 kts | 10° |
| 2026-04-20 04:05 | 64.36794 | -148.30060 | 6075 ft | 275 kts | 10° |
| 2026-04-20 04:05 | 64.38634 | -148.28861 | 5785 ft | 274 kts | 10° |
| 2026-04-20 04:05 | 64.40461 | -148.27667 | 5594 ft | 270 kts | 9° |
| 2026-04-20 04:05 | 64.42273 | -148.26481 | 5258 ft | 272 kts | 10° |
| 2026-04-20 04:06 | 64.44075 | -148.25311 | 5004 ft | 263 kts | 7° |
| 2026-04-20 04:06 | 64.45827 | -148.24919 | 4842 ft | 248 kts | 352° |
| 2026-04-20 04:06 | 64.47540 | -148.25082 | 4718 ft | 248 kts | 352° |
| 2026-04-20 04:06 | 64.49289 | -148.25087 | 4575 ft | 255 kts | 355° |
| 2026-04-20 04:07 | 64.51078 | -148.24908 | 4416 ft | 259 kts | 356° |
| 2026-04-20 04:07 | 64.52873 | -148.24724 | 4240 ft | 258 kts | 356° |
| 2026-04-20 04:07 | 64.54641 | -148.24573 | 4117 ft | 248 kts | 356° |
| 2026-04-20 04:07 | 64.56319 | -148.24446 | 3988 ft | 235 kts | 355° |
| 2026-04-20 04:08 | 64.57919 | -148.24335 | 3866 ft | 226 kts | 355° |
| 2026-04-20 04:08 | 64.59494 | -148.24231 | 3494 ft | 232 kts | 359° |
| 2026-04-20 04:08 | 64.61088 | -148.23133 | 3030 ft | 247 kts | 24° |
| 2026-04-20 04:08 | 64.62545 | -148.20964 | 2678 ft | 247 kts | 34° |
| 2026-04-20 04:09 | 64.63882 | -148.18630 | 2623 ft | 231 kts | 36° |
| 2026-04-20 04:09 | 64.65100 | -148.16479 | 2587 ft | 208 kts | 36° |
| 2026-04-20 04:09 | 64.66202 | -148.14481 | 2625 ft | 201 kts | 37° |
| 2026-04-20 04:09 | 64.67286 | -148.12488 | 2627 ft | 200 kts | 37° |
| 2026-04-20 04:10 | 64.68369 | -148.10489 | 2611 ft | 197 kts | 37° |
| 2026-04-20 04:10 | 64.69439 | -148.08514 | 2598 ft | 195 kts | 37° |
| 2026-04-20 04:10 | 64.70495 | -148.06567 | 2595 ft | 192 kts | 37° |
| 2026-04-20 04:10 | 64.71546 | -148.04629 | 2599 ft | 194 kts | 37° |
| 2026-04-20 04:11 | 64.72624 | -148.02643 | 2389 ft | 199 kts | 38° |
| 2026-04-20 04:11 | 64.73682 | -148.00692 | 2132 ft | 188 kts | 38° |
| 2026-04-20 04:11 | 64.74681 | -147.98851 | 1891 ft | 178 kts | 38° |
| 2026-04-20 04:11 | 64.75625 | -147.97112 | 1722 ft | 170 kts | 37° |
| 2026-04-20 04:12 | 64.76559 | -147.95392 | 1443 ft | 168 kts | 37° |
| 2026-04-20 04:12 | 64.77453 | -147.93748 | 1224 ft | 160 kts | 37° |
| 2026-04-20 04:12 | 64.78332 | -147.92132 | 1033 ft | 163 kts | 38° |
| 2026-04-20 04:12 | 64.79236 | -147.90456 | 823 ft | 168 kts | 40° |
| 2026-04-20 04:13 | 64.80164 | -147.88761 | 581 ft | 164 kts | 36° |
| 2026-04-20 04:13 | 64.81031 | -147.87194 | 445 ft | 144 kts | 35° |
| 2026-04-20 04:13 | 64.81635 | -147.86074 | 447 ft | 63 kts | 38° |
| 2026-04-20 04:13 | 64.81845 | -147.85690 | 446 ft | 18 kts | 37° |
| 2026-04-20 04:14 | 64.81939 | -147.85650 | 447 ft | 6 kts | 313° |
| 2026-04-20 04:14 | 64.81942 | -147.85660 | 447 ft | 0 kts | 303° |
| 2026-04-20 04:15 | 64.81949 | -147.85687 | 447 ft | 4 kts | 303° |
| 2026-04-20 04:15 | 64.81955 | -147.85764 | 446 ft | 6 kts | 259° |
| 2026-04-20 04:15 | 64.81931 | -147.85843 | 441 ft | 6 kts | 224° |
| 2026-04-20 04:15 | 64.81894 | -147.85918 | 439 ft | 8 kts | 219° |
| 2026-04-20 04:16 | 64.81850 | -147.85998 | 439 ft | 8 kts | 217° |
| 2026-04-20 04:16 | 64.81819 | -147.86105 | 441 ft | 9 kts | 277° |
| 2026-04-20 04:16 | 64.81810 | -147.86240 | 441 ft | 9 kts | 242° |
| 2026-04-20 04:16 | 64.81795 | -147.86377 | 438 ft | 9 kts | 227° |
| 2026-04-20 04:17 | 64.81765 | -147.86462 | 434 ft | 5 kts | 201° |
| 2026-04-20 04:17 | 64.81730 | -147.86450 | 435 ft | 5 kts | 168° |
| 2026-04-20 04:17 | 64.81699 | -147.86483 | 445 ft | 6 kts | 227° |
| 2026-04-20 04:17 | 64.81685 | -147.86576 | 445 ft | 7 kts | 273° |
| 2026-04-20 04:18 | 64.81713 | -147.86666 | 443 ft | 3 kts | 322° |
| 2026-04-20 04:18 | 64.81718 | -147.86674 | 433 ft | 0 kts | 322° |